createdAt,value
2023-02-14T00:01:12.571Z,3.90
2023-02-14T00:03:41.142Z,4.00
2023-02-14T00:06:10.135Z,3.90
2023-02-14T00:08:37.555Z,4.10
2023-02-14T00:11:05.428Z,4.00
2023-02-14T00:13:32.564Z,4.10
2023-02-14T00:16:00.031Z,4.00
2023-02-14T00:18:45.807Z,4.10
2023-02-14T00:21:14.350Z,4.20
2023-02-14T00:23:41.334Z,4.10
2023-02-14T00:26:15.068Z,3.90
2023-02-14T00:28:42.150Z,3.80
2023-02-14T00:31:09.735Z,3.70
2023-02-14T00:33:37.132Z,3.60
2023-02-14T00:36:05.036Z,3.70
2023-02-14T00:38:34.245Z,3.80
2023-02-14T00:41:02.011Z,3.80
2023-02-14T00:43:29.427Z,3.80
2023-02-14T00:45:56.538Z,3.80
2023-02-14T00:48:23.635Z,3.90
2023-02-14T00:50:50.520Z,3.90
2023-02-14T00:53:18.687Z,3.70
2023-02-14T00:55:47.237Z,3.70
2023-02-14T00:58:14.381Z,3.80
2023-02-14T01:00:41.424Z,3.80
2023-02-14T01:03:08.517Z,3.80
2023-02-14T01:05:35.927Z,3.60
2023-02-14T01:08:03.063Z,3.70
2023-02-14T01:10:30.298Z,3.70
2023-02-14T01:12:59.118Z,3.70
2023-02-14T01:15:26.281Z,3.70
2023-02-14T01:17:53.403Z,3.70
2023-02-14T01:20:20.497Z,3.60
2023-02-14T01:22:47.508Z,3.60
2023-02-14T01:25:14.550Z,3.40
2023-02-14T01:27:41.501Z,3.40
2023-02-14T01:30:12.359Z,3.40
2023-02-14T01:32:39.463Z,3.50
2023-02-14T01:35:06.764Z,3.50
2023-02-14T01:37:33.948Z,3.60
2023-02-14T01:40:01.497Z,3.60
2023-02-14T01:42:29.041Z,3.60
2023-02-14T01:45:01.396Z,3.30
2023-02-14T01:47:34.557Z,3.40
2023-02-14T01:50:08.351Z,3.40
2023-02-14T01:52:42.020Z,3.40
2023-02-14T01:55:13.190Z,3.40
2023-02-14T01:57:45.220Z,3.40
2023-02-14T02:00:32.702Z,3.30
2023-02-14T02:03:02.703Z,3.30
2023-02-14T02:05:29.898Z,3.20
2023-02-14T02:07:59.935Z,3.20
2023-02-14T02:10:26.883Z,3.20
2023-02-14T02:12:54.186Z,3.20
2023-02-14T02:15:24.333Z,3.20
2023-02-14T02:18:02.298Z,3.20
2023-02-14T02:21:23.886Z,3.20
2023-02-14T02:24:21.970Z,3.00
2023-02-14T02:27:21.465Z,3.10
2023-02-14T02:30:23.989Z,3.20
2023-02-14T02:33:51.548Z,3.10
2023-02-14T02:37:03.264Z,3.10
2023-02-14T02:39:48.361Z,3.00
2023-02-14T02:42:24.987Z,2.90
2023-02-14T02:44:58.445Z,2.90
2023-02-14T02:47:32.563Z,2.90
2023-02-14T02:50:23.055Z,2.90
2023-02-14T02:53:02.980Z,2.90
2023-02-14T02:55:57.668Z,3.00
2023-02-14T02:58:31.309Z,2.90
2023-02-14T03:01:02.669Z,2.90
2023-02-14T03:03:51.807Z,3.00
2023-02-14T03:06:18.769Z,3.00
2023-02-14T03:08:47.146Z,3.00
2023-02-14T03:11:14.418Z,2.90
2023-02-14T03:14:07.946Z,2.90
2023-02-14T03:16:41.580Z,2.80
2023-02-14T03:19:33.562Z,2.90
2023-02-14T03:22:09.071Z,2.90
2023-02-14T03:24:46.988Z,2.90
2023-02-14T03:27:22.797Z,2.90
2023-02-14T03:30:03.745Z,2.90
2023-02-14T03:32:39.728Z,2.80
2023-02-14T03:35:15.479Z,2.90
2023-02-14T03:37:49.594Z,2.80
2023-02-14T03:40:22.695Z,2.60
2023-02-14T03:42:55.788Z,2.60
2023-02-14T03:45:28.979Z,2.60
2023-02-14T03:48:00.690Z,2.60
2023-02-14T03:50:29.216Z,2.70
2023-02-14T03:52:58.170Z,2.60
2023-02-14T03:55:35.035Z,2.60
2023-02-14T03:58:07.793Z,2.30
2023-02-14T04:00:38.712Z,2.30
2023-02-14T04:03:11.968Z,2.40
2023-02-14T04:05:43.552Z,2.40
2023-02-14T04:08:12.177Z,2.50
2023-02-14T04:10:42.049Z,2.50
2023-02-14T04:13:09.048Z,2.50
2023-02-14T04:15:36.174Z,2.40
2023-02-14T04:18:22.081Z,2.50
2023-02-14T04:20:51.559Z,2.60
2023-02-14T04:23:18.869Z,2.50
2023-02-14T04:25:47.442Z,2.50
2023-02-14T04:28:14.941Z,2.50
2023-02-14T04:30:42.399Z,2.40
2023-02-14T04:33:10.894Z,2.40
2023-02-14T04:35:38.373Z,2.50
2023-02-14T04:38:06.554Z,2.50
2023-02-14T04:40:33.958Z,2.40
2023-02-14T04:43:04.646Z,2.40
2023-02-14T04:45:32.175Z,2.30
2023-02-14T04:48:02.500Z,2.30
2023-02-14T04:50:30.144Z,2.30
2023-02-14T04:52:57.406Z,2.40
2023-02-14T04:55:24.957Z,2.50
2023-02-14T04:57:52.212Z,2.40
2023-02-14T05:00:22.311Z,2.40
2023-02-14T05:02:49.579Z,2.50
2023-02-14T05:05:17.129Z,2.50
2023-02-14T05:07:48.052Z,2.40
2023-02-14T05:10:15.460Z,2.40
2023-02-14T05:12:42.905Z,2.40
2023-02-14T05:15:14.248Z,2.20
2023-02-14T05:17:53.781Z,2.10
2023-02-14T05:20:21.294Z,2.20
2023-02-14T05:22:48.973Z,2.20
2023-02-14T05:25:19.169Z,2.20
2023-02-14T05:27:46.412Z,2.30
2023-02-14T05:30:15.105Z,2.20
2023-02-14T05:32:43.565Z,2.00
2023-02-14T05:35:11.074Z,2.00
2023-02-14T05:37:38.157Z,2.10
2023-02-14T05:40:08.350Z,2.30
2023-02-14T05:42:35.541Z,2.40
2023-02-14T05:45:05.847Z,2.50
2023-02-14T05:47:36.635Z,2.30
2023-02-14T05:50:07.347Z,2.30
2023-02-14T05:52:35.190Z,2.20
2023-02-14T05:55:02.689Z,2.10
2023-02-14T05:57:29.962Z,2.10
2023-02-14T05:59:57.426Z,2.10
2023-02-14T06:02:24.631Z,2.10
2023-02-14T06:04:52.104Z,2.10
2023-02-14T06:07:21.031Z,2.10
2023-02-14T06:09:48.164Z,2.10
2023-02-14T06:12:15.279Z,2.10
2023-02-14T06:14:43.167Z,2.30
2023-02-14T06:17:10.995Z,2.30
2023-02-14T06:19:38.318Z,2.30
2023-02-14T06:22:05.446Z,2.20
2023-02-14T06:24:33.993Z,2.20
2023-02-14T06:27:01.638Z,2.30
2023-02-14T06:29:29.212Z,2.30
2023-02-14T06:31:57.115Z,2.40
2023-02-14T06:34:27.634Z,2.50
2023-02-14T06:36:55.266Z,2.50
2023-02-14T06:39:22.461Z,2.70
2023-02-14T06:41:51.367Z,2.80
2023-02-14T06:44:19.932Z,2.90
2023-02-14T06:46:47.316Z,2.90
2023-02-14T06:49:14.896Z,3.10
2023-02-14T06:51:42.380Z,3.10
2023-02-14T06:54:09.739Z,3.20
2023-02-14T06:56:37.196Z,3.30
2023-02-14T06:59:06.398Z,3.30
2023-02-14T07:01:33.724Z,3.10
2023-02-14T07:04:00.886Z,3.20
2023-02-14T07:06:28.164Z,3.20
2023-02-14T07:08:55.193Z,3.20
2023-02-14T07:11:22.440Z,3.20
2023-02-14T07:13:49.696Z,3.30
2023-02-14T07:16:18.303Z,3.30
2023-02-14T07:18:45.561Z,3.30
2023-02-14T07:21:13.026Z,3.30
2023-02-14T07:23:40.381Z,3.30
2023-02-14T07:26:07.578Z,3.40
2023-02-14T07:28:34.822Z,3.40
2023-02-14T07:31:02.852Z,3.40
2023-02-14T07:33:35.029Z,3.40
2023-02-14T07:36:05.651Z,3.40
2023-02-14T07:38:32.746Z,3.50
2023-02-14T07:41:00.274Z,3.50
2023-02-14T07:43:27.708Z,3.60
2023-02-14T07:45:55.420Z,3.60
2023-02-14T07:48:22.731Z,3.60
2023-02-14T07:50:51.636Z,3.60
2023-02-14T07:53:20.902Z,3.60
2023-02-14T07:55:49.824Z,3.60
2023-02-14T07:58:17.142Z,3.60
2023-02-14T08:00:44.442Z,3.70
2023-02-14T08:03:11.636Z,3.70
2023-02-14T08:05:38.965Z,3.60
2023-02-14T08:08:07.743Z,3.70
2023-02-14T08:10:34.963Z,3.70
2023-02-14T08:13:03.517Z,3.80
2023-02-14T08:15:51.250Z,3.70
2023-02-14T08:18:19.769Z,3.70
2023-02-14T08:20:51.076Z,3.70
2023-02-14T08:23:21.393Z,3.80
2023-02-14T08:25:49.879Z,3.80
2023-02-14T08:28:18.042Z,3.90
2023-02-14T08:30:45.926Z,3.90
2023-02-14T08:33:13.513Z,3.90
2023-02-14T08:35:43.072Z,3.90
2023-02-14T08:38:11.686Z,3.80
2023-02-14T08:40:40.322Z,3.70
2023-02-14T08:43:08.206Z,3.80
2023-02-14T08:45:35.784Z,3.90
2023-02-14T08:48:04.962Z,3.90
2023-02-14T08:50:32.490Z,3.80
2023-02-14T08:52:59.945Z,3.70
2023-02-14T08:55:27.803Z,3.70
2023-02-14T08:57:58.178Z,3.90
2023-02-14T09:00:25.871Z,3.80
2023-02-14T09:03:04.464Z,3.90
2023-02-14T09:05:31.726Z,3.80
2023-02-14T09:07:59.583Z,3.90
2023-02-14T09:10:28.584Z,3.90
2023-02-14T09:12:57.293Z,3.90
2023-02-14T09:15:24.555Z,3.90
2023-02-14T09:17:52.953Z,3.90
2023-02-14T09:20:21.020Z,3.90
2023-02-14T09:22:51.635Z,3.80
2023-02-14T09:25:19.031Z,3.90
2023-02-14T09:27:46.311Z,3.90
2023-02-14T09:30:16.712Z,4.00
2023-02-14T09:32:43.963Z,4.20
2023-02-14T09:35:11.352Z,4.30
2023-02-14T09:37:57.137Z,4.10
2023-02-14T09:40:25.689Z,4.00
2023-02-14T09:43:03.724Z,4.00
2023-02-14T09:45:34.249Z,4.00
2023-02-14T09:48:10.316Z,4.00
2023-02-14T09:50:52.334Z,3.90
2023-02-14T09:53:27.303Z,4.00
2023-02-14T09:56:02.854Z,4.10
2023-02-14T09:58:34.966Z,4.00
2023-02-14T10:01:15.078Z,3.90
2023-02-14T10:04:06.066Z,3.90
2023-02-14T10:06:50.319Z,3.90
2023-02-14T10:09:54.332Z,4.00
2023-02-14T10:12:30.029Z,4.10
2023-02-14T10:15:02.176Z,4.20
2023-02-14T10:17:38.653Z,4.20
2023-02-14T10:20:19.018Z,4.20
2023-02-14T10:22:56.595Z,4.20
2023-02-14T10:25:29.239Z,4.20
2023-02-14T10:27:59.006Z,4.20
2023-02-14T10:30:26.626Z,4.20
2023-02-14T10:33:04.601Z,4.30
2023-02-14T10:35:48.159Z,4.30
2023-02-14T10:38:40.870Z,4.30
2023-02-14T10:41:25.781Z,4.30
2023-02-14T10:44:03.372Z,4.30
2023-02-14T10:46:39.112Z,4.30
2023-02-14T10:49:31.805Z,4.40
2023-02-14T10:52:09.889Z,4.40
2023-02-14T10:54:40.528Z,4.50
2023-02-14T10:57:16.328Z,4.40
2023-02-14T10:59:51.577Z,4.30
2023-02-14T11:02:23.865Z,4.30
2023-02-14T11:05:04.314Z,4.30
2023-02-14T11:07:31.708Z,4.30
2023-02-14T11:09:58.866Z,4.30
2023-02-14T11:12:35.616Z,4.30
2023-02-14T11:15:20.778Z,4.30
2023-02-14T11:17:48.804Z,4.30
2023-02-14T11:20:30.334Z,4.30
2023-02-14T11:22:57.925Z,4.40
2023-02-14T11:25:28.165Z,4.30
2023-02-14T11:28:01.117Z,4.40
2023-02-14T11:30:31.997Z,4.30
2023-02-14T11:32:59.371Z,4.40
2023-02-14T11:35:38.631Z,4.40
2023-02-14T11:38:10.609Z,4.40
2023-02-14T11:40:39.930Z,4.30
2023-02-14T11:43:29.740Z,4.40
2023-02-14T11:46:11.002Z,4.40
2023-02-14T11:48:39.767Z,4.20
2023-02-14T11:51:13.969Z,4.30
2023-02-14T11:53:47.550Z,4.30
2023-02-14T11:56:16.303Z,4.40
2023-02-14T11:58:50.517Z,4.40
2023-02-14T12:01:25.198Z,4.40
2023-02-14T12:03:54.939Z,4.30
2023-02-14T12:06:27.953Z,4.30
2023-02-14T12:09:12.790Z,4.40
2023-02-14T12:11:40.356Z,4.30
2023-02-14T12:14:21.894Z,4.30
2023-02-14T12:16:57.376Z,4.30
2023-02-14T12:19:35.536Z,4.30
2023-02-14T12:22:06.785Z,4.40
2023-02-14T12:24:39.562Z,4.40
2023-02-14T12:27:23.083Z,4.40
2023-02-14T12:29:56.595Z,4.50
2023-02-14T12:32:26.937Z,4.60
2023-02-14T12:35:02.074Z,4.60
2023-02-14T12:37:56.066Z,4.60
2023-02-14T12:40:44.259Z,4.50
2023-02-14T12:43:44.413Z,4.60
2023-02-14T12:46:30.873Z,4.70
2023-02-14T12:49:38.058Z,4.50
2023-02-14T12:52:33.203Z,4.60
2023-02-14T12:55:21.550Z,4.60
2023-02-14T12:57:57.056Z,4.60
2023-02-14T13:00:34.832Z,4.70
2023-02-14T13:03:57.692Z,4.70
2023-02-14T13:06:32.844Z,4.60
2023-02-14T13:09:18.296Z,4.60
2023-02-14T13:12:01.383Z,4.60
2023-02-14T13:14:44.891Z,4.60
2023-02-14T13:17:21.696Z,4.60
2023-02-14T13:19:58.745Z,4.70
2023-02-14T13:22:30.836Z,4.80
2023-02-14T13:25:03.873Z,4.90
2023-02-14T13:27:38.041Z,4.70
2023-02-14T13:30:16.467Z,4.70
2023-02-14T13:32:46.059Z,4.80
2023-02-14T13:35:17.728Z,4.90
2023-02-14T13:37:52.238Z,4.90
2023-02-14T13:40:22.824Z,4.90
2023-02-14T13:42:57.469Z,4.80
2023-02-14T13:46:04.400Z,4.90
2023-02-14T13:48:32.140Z,5.00
2023-02-14T13:51:02.040Z,4.90
2023-02-14T13:53:39.551Z,4.90
2023-02-14T13:56:35.039Z,4.90
2023-02-14T13:59:05.759Z,4.90
2023-02-14T14:01:37.624Z,4.90
2023-02-14T14:04:30.396Z,4.80
2023-02-14T14:07:27.011Z,4.90
2023-02-14T14:10:00.131Z,4.90
2023-02-14T14:12:44.316Z,4.90
2023-02-14T14:15:18.113Z,4.80
2023-02-14T14:17:50.643Z,4.80
2023-02-14T14:20:46.406Z,4.80
2023-02-14T14:23:34.591Z,4.80
2023-02-14T14:26:02.579Z,4.80
2023-02-14T14:28:32.550Z,4.90
2023-02-14T14:31:00.207Z,4.90
2023-02-14T14:33:31.015Z,4.90
2023-02-14T14:36:02.439Z,5.00
2023-02-14T14:38:33.181Z,5.00
2023-02-14T14:41:02.470Z,5.00
2023-02-14T14:43:34.143Z,5.00
2023-02-14T14:46:03.501Z,5.00
2023-02-14T14:48:34.000Z,5.00
2023-02-14T14:51:01.576Z,5.00
2023-02-14T14:53:35.939Z,5.00
2023-02-14T14:56:03.447Z,4.90
2023-02-14T14:58:36.759Z,4.90
2023-02-14T15:01:06.311Z,4.90
2023-02-14T15:03:34.136Z,4.90
2023-02-14T15:06:09.478Z,4.90
2023-02-14T15:08:37.989Z,5.00
2023-02-14T15:11:11.231Z,4.90
2023-02-14T15:13:58.476Z,4.90
2023-02-14T15:16:29.534Z,5.00
2023-02-14T15:19:00.211Z,5.10
2023-02-14T15:21:28.539Z,5.10
2023-02-14T15:23:57.211Z,5.10
2023-02-14T15:26:33.056Z,5.10
2023-02-14T15:29:03.373Z,5.00
2023-02-14T15:31:34.508Z,5.10
2023-02-14T15:34:03.129Z,5.10
2023-02-14T15:36:31.962Z,5.10
2023-02-14T15:39:03.765Z,5.00
2023-02-14T15:41:31.097Z,5.10
2023-02-14T15:43:58.781Z,5.00
2023-02-14T15:46:35.281Z,5.00
2023-02-14T15:49:09.709Z,5.00
2023-02-14T15:51:39.136Z,5.00
2023-02-14T15:54:20.037Z,5.00
2023-02-14T15:56:53.502Z,5.10
2023-02-14T15:59:26.291Z,5.00
2023-02-14T16:01:57.091Z,5.00
2023-02-14T16:04:26.641Z,4.90
2023-02-14T16:07:21.749Z,4.90
2023-02-14T16:09:53.170Z,5.00
2023-02-14T16:12:40.024Z,5.00
2023-02-14T16:15:18.982Z,5.00
2023-02-14T16:17:46.383Z,5.00
2023-02-14T16:20:40.058Z,5.00
2023-02-14T16:23:21.494Z,5.10
2023-02-14T16:25:51.117Z,5.10
2023-02-14T16:28:18.983Z,5.00
2023-02-14T16:30:48.341Z,5.00
2023-02-14T16:33:23.133Z,5.00
2023-02-14T16:35:51.008Z,5.00
2023-02-14T16:38:21.051Z,4.90
2023-02-14T16:40:52.051Z,5.10
2023-02-14T16:43:21.186Z,5.10
2023-02-14T16:45:48.659Z,5.20
2023-02-14T16:48:16.066Z,5.20
2023-02-14T16:50:44.112Z,5.20
2023-02-14T16:53:26.687Z,5.00
2023-02-14T16:55:57.473Z,5.10
2023-02-14T16:58:29.014Z,5.00
2023-02-14T17:00:58.553Z,5.00
2023-02-14T17:03:26.311Z,5.10
2023-02-14T17:05:54.981Z,5.10
2023-02-14T17:08:23.155Z,5.10
2023-02-14T17:10:51.197Z,5.00
2023-02-14T17:13:23.530Z,5.10
2023-02-14T17:15:52.009Z,5.20
2023-02-14T17:18:21.686Z,5.10
2023-02-14T17:20:49.244Z,5.10
2023-02-14T17:23:16.641Z,5.10
2023-02-14T17:25:44.873Z,5.20
2023-02-14T17:28:12.032Z,5.10
2023-02-14T17:30:40.551Z,5.20
2023-02-14T17:33:08.232Z,5.20
2023-02-14T17:35:35.872Z,5.20
2023-02-14T17:38:03.162Z,5.20
2023-02-14T17:40:31.284Z,5.10
2023-02-14T17:42:58.605Z,5.10
2023-02-14T17:45:25.801Z,5.00
2023-02-14T17:47:57.453Z,5.00
2023-02-14T17:50:24.646Z,4.90
2023-02-14T17:52:54.970Z,4.90
2023-02-14T17:55:22.684Z,4.90
2023-02-14T17:57:52.577Z,5.00
2023-02-14T18:00:23.282Z,4.90
2023-02-14T18:02:50.788Z,4.80
2023-02-14T18:05:19.487Z,4.70
2023-02-14T18:07:46.684Z,4.70
2023-02-14T18:10:13.932Z,4.80
2023-02-14T18:12:41.969Z,4.80
2023-02-14T18:15:10.066Z,4.60
2023-02-14T18:17:37.567Z,4.50
2023-02-14T18:20:06.750Z,4.50
2023-02-14T18:22:39.489Z,4.50
2023-02-14T18:25:09.618Z,4.50
2023-02-14T18:27:36.871Z,4.40
2023-02-14T18:30:05.185Z,4.30
2023-02-14T18:32:32.530Z,4.30
2023-02-14T18:34:59.614Z,4.30
2023-02-14T18:37:26.931Z,4.20
2023-02-14T18:39:55.532Z,4.20
2023-02-14T18:42:22.699Z,4.10
2023-02-14T18:44:49.802Z,4.10
2023-02-14T18:47:17.142Z,4.10
2023-02-14T18:49:44.351Z,4.10
2023-02-14T18:52:11.585Z,4.00
2023-02-14T18:54:38.685Z,3.90
2023-02-14T18:57:08.298Z,3.90
2023-02-14T18:59:35.712Z,3.80
2023-02-14T19:02:05.330Z,3.80
2023-02-14T19:04:32.774Z,3.70
2023-02-14T19:07:00.040Z,3.70
2023-02-14T19:09:29.518Z,3.80
2023-02-14T19:11:59.987Z,3.80
2023-02-14T19:14:28.655Z,3.80
2023-02-14T19:16:56.132Z,3.80
2023-02-14T19:19:23.960Z,3.80
2023-02-14T19:21:52.104Z,3.70
2023-02-14T19:24:20.217Z,3.60
2023-02-14T19:26:48.332Z,3.50
2023-02-14T19:29:18.739Z,3.50
2023-02-14T19:31:49.923Z,3.50
2023-02-14T19:34:40.457Z,3.60
2023-02-14T19:37:08.095Z,3.40
2023-02-14T19:39:35.626Z,3.40
2023-02-14T19:42:04.023Z,3.30
2023-02-14T19:44:32.583Z,3.30
2023-02-14T19:47:04.123Z,3.30
2023-02-14T19:49:36.739Z,3.20
2023-02-14T19:52:06.307Z,3.10
2023-02-14T19:54:38.930Z,3.10
2023-02-14T19:57:06.301Z,3.30
2023-02-14T19:59:33.664Z,3.40
2023-02-14T20:02:04.885Z,3.50
2023-02-14T20:04:32.572Z,3.60
2023-02-14T20:06:59.808Z,3.60
2023-02-14T20:09:27.050Z,3.60
2023-02-14T20:14:50.864Z,3.60
2023-02-14T20:17:20.329Z,3.60
2023-02-14T20:19:47.506Z,3.60
2023-02-14T20:22:14.693Z,3.60
2023-02-14T20:24:41.989Z,3.60
2023-02-14T20:29:56.225Z,3.70
2023-02-14T20:32:25.145Z,3.70
2023-02-14T20:34:53.505Z,3.70
2023-02-14T20:37:20.668Z,3.80
2023-02-14T20:39:48.119Z,3.80
2023-02-14T20:42:15.250Z,3.70
2023-02-14T20:44:42.664Z,3.70
2023-02-14T20:47:11.385Z,3.60
2023-02-14T20:49:42.163Z,3.60
2023-02-14T20:52:09.327Z,3.80
2023-02-14T20:54:41.561Z,3.90
2023-02-14T20:57:08.772Z,3.90
2023-02-14T20:59:37.457Z,3.90
2023-02-14T21:02:04.971Z,3.90
2023-02-14T21:04:35.638Z,3.80
2023-02-14T21:07:08.896Z,3.90
2023-02-14T21:09:37.793Z,3.90
2023-02-14T21:12:06.853Z,4.00
2023-02-14T21:14:34.192Z,3.90
2023-02-14T21:17:01.240Z,3.70
2023-02-14T21:19:28.681Z,3.70
2023-02-14T21:21:55.855Z,3.70
2023-02-14T21:24:24.671Z,3.90
2023-02-14T21:26:51.900Z,3.90
2023-02-14T21:29:19.341Z,3.90
2023-02-14T21:31:46.552Z,3.90
2023-02-14T21:34:15.783Z,3.70
2023-02-14T21:36:43.052Z,3.50
2023-02-14T21:39:10.621Z,3.60
2023-02-14T21:41:41.320Z,3.60
2023-02-14T21:44:08.570Z,3.60
2023-02-14T21:46:41.020Z,3.70
2023-02-14T21:49:26.662Z,3.80
2023-02-14T21:51:53.919Z,3.80
2023-02-14T21:54:21.030Z,3.90
2023-02-14T21:56:50.011Z,4.00
2023-02-14T21:59:17.278Z,4.00
2023-02-14T22:01:47.396Z,4.00
2023-02-14T22:04:14.824Z,4.00
2023-02-14T22:06:43.436Z,4.00
2023-02-14T22:09:13.536Z,4.00
2023-02-14T22:11:41.308Z,3.90
2023-02-14T22:14:11.301Z,3.80
2023-02-14T22:16:39.311Z,3.80
2023-02-14T22:19:09.174Z,3.90
2023-02-14T22:21:36.966Z,3.90
2023-02-14T22:24:05.437Z,4.00
2023-02-14T22:26:35.617Z,4.00
2023-02-14T22:29:03.585Z,3.90
2023-02-14T22:31:36.086Z,4.00
2023-02-14T22:34:04.820Z,3.90
2023-02-14T22:36:31.998Z,3.90
2023-02-14T22:38:59.172Z,3.90
2023-02-14T22:41:28.177Z,3.90
2023-02-14T22:44:08.444Z,3.90
2023-02-14T22:46:47.573Z,3.80
2023-02-14T22:49:14.803Z,3.80
2023-02-14T22:51:42.847Z,3.60
2023-02-14T22:54:12.516Z,3.70
2023-02-14T22:56:44.443Z,3.60
2023-02-14T22:59:17.560Z,3.50
2023-02-14T23:01:46.439Z,3.40
2023-02-14T23:04:15.252Z,3.40
2023-02-14T23:06:42.621Z,3.50
2023-02-14T23:09:14.400Z,3.50
2023-02-14T23:11:44.316Z,3.60
2023-02-14T23:14:31.686Z,3.60
2023-02-14T23:17:16.190Z,3.60
2023-02-14T23:20:02.963Z,3.60
2023-02-14T23:22:32.498Z,3.50
2023-02-14T23:25:03.484Z,3.50
2023-02-14T23:27:38.654Z,3.50
2023-02-14T23:30:08.542Z,3.50
2023-02-14T23:32:38.254Z,3.40
2023-02-14T23:35:06.033Z,3.40
2023-02-14T23:37:33.548Z,3.40
2023-02-14T23:40:00.859Z,3.50
2023-02-14T23:42:28.322Z,3.50
2023-02-14T23:45:15.360Z,3.40
2023-02-14T23:47:46.356Z,3.40
2023-02-14T23:50:13.533Z,3.40
2023-02-14T23:52:41.935Z,3.40
2023-02-14T23:55:09.347Z,3.40
2023-02-14T23:57:37.154Z,3.40
